Logan, Illinois
Current Conditions -  °F | °C
As of 3:35 AM on Friday 24 Oct 2014 (Local Time) from KMWA Reporting Station
Broken Clouds Broken Clouds  
Wind Chill: 46°   Ceiling: 8000
Heat Index: 46°   Visibility: 10mi
Dew Point: 45°   Wind: 3mph
Humidity: 93%   Direction: 200°SSW
Pressure: 30.11"   Gusts: NA
Location:  37.96°N, 88.84°W
Report Text: KMWA 240835Z AUTO 20003KT 10SM SCT060 BKN080 08/07 A3011 RMK AO2
Loading
Personal Weather Stations






























Interactive Weather Map New forecast layout! Learn more

10-Day Weather Forecast

Advertisements
Track Severe Weather on mobile